Time;durP1;ratioP1;P1;durP2;ratioP2;P2;SDS_P1;SDS_P2;PMS_P1;PMS_P2;Temp;Humidity;BMP_temperature;BMP_pressure;BME280_temperature;BME280_humidity;BME280_pressure;Samples;Min_cycle;Max_cycle;Signal;HPM_P1;HPM_P2
2023/06/08 00:01:58;;;;;;;13.77;10.43;;;18.10;1.00;;;;;;5032163;28;20552;-75
2023/06/08 00:04:30;;;;;;;11.47;9.90;;;18.20;1.00;;;;;;5031447;28;20292;-74
2023/06/08 00:06:56;;;;;;;14.70;10.70;;;18.20;1.00;;;;;;5031957;28;20308;-75
2023/06/08 00:09:21;;;;;;;15.73;10.73;;;18.30;1.00;;;;;;5031472;28;20555;-75
2023/06/08 00:11:48;;;;;;;11.83;10.57;;;18.20;1.00;;;;;;5031648;28;20511;-75
2023/06/08 00:14:13;;;;;;;11.80;10.60;;;18.20;1.00;;;;;;5031382;28;20217;-75
2023/06/08 00:16:39;;;;;;;14.70;10.40;;;18.20;1.00;;;;;;5031689;28;20447;-75
2023/06/08 00:19:07;;;;;;;14.93;10.50;;;18.20;1.00;;;;;;5031369;28;20178;-73
2023/06/08 00:21:33;;;;;;;12.17;10.90;;;18.20;1.00;;;;;;5029870;28;20486;-75
2023/06/08 00:23:58;;;;;;;12.50;10.10;;;18.30;1.00;;;;;;5027454;28;20444;-76
2023/06/08 00:26:25;;;;;;;11.37;10.07;;;18.20;1.00;;;;;;5029910;28;22148;-74
2023/06/08 00:28:51;;;;;;;12.07;10.70;;;18.30;1.00;;;;;;5031259;28;20232;-75
2023/06/08 00:31:16;;;;;;;15.07;10.30;;;18.20;1.00;;;;;;5029413;28;20456;-74
2023/06/08 00:33:42;;;;;;;13.20;10.43;;;18.20;1.00;;;;;;5031759;28;20576;-75
2023/06/08 00:36:08;;;;;;;11.33;10.13;;;18.10;1.00;;;;;;5030793;28;20552;-74
2023/06/08 00:38:34;;;;;;;12.27;9.70;;;18.00;1.00;;;;;;5031216;28;20186;-75
2023/06/08 00:41:00;;;;;;;16.27;10.40;;;18.00;1.00;;;;;;5031081;28;20189;-75
2023/06/08 00:43:26;;;;;;;11.80;10.57;;;17.80;1.00;;;;;;5029621;28;20197;-75
2023/06/08 00:45:52;;;;;;;13.40;11.00;;;17.80;1.00;;;;;;5031085;28;20795;-75
2023/06/08 00:48:18;;;;;;;11.60;9.90;;;17.70;1.00;;;;;;5029102;28;20690;-75
2023/06/08 00:50:45;;;;;;;11.60;10.40;;;17.70;1.00;;;;;;5030934;28;20431;-75
2023/06/08 00:53:12;;;;;;;12.40;10.73;;;17.60;1.00;;;;;;5030556;28;20205;-75
2023/06/08 00:55:38;;;;;;;14.93;11.20;;;17.50;1.00;;;;;;5030672;28;20920;-74
2023/06/08 00:58:04;;;;;;;12.90;10.07;;;17.60;1.00;;;;;;5028541;28;20532;-74
2023/06/08 01:00:32;;;;;;;12.27;10.87;;;17.50;1.00;;;;;;5029810;28;20190;-75
2023/06/08 01:02:58;;;;;;;13.63;10.00;;;17.50;1.00;;;;;;5031201;28;20486;-75
2023/06/08 01:05:24;;;;;;;13.17;10.70;;;17.40;1.00;;;;;;5030836;28;20452;-75
2023/06/08 01:08:10;;;;;;;13.30;10.47;;;17.40;1.00;;;;;;5030972;28;20495;-75
2023/06/08 01:11:00;;;;;;;17.30;10.80;;;17.30;1.00;;;;;;5023744;28;20184;-75
2023/06/08 01:14:13;;;;;;;13.33;10.50;;;17.40;1.00;;;;;;5030738;28;20428;-75
2023/06/08 01:16:44;;;;;;;12.33;11.03;;;17.40;1.00;;;;;;4989333;28;20422;-75
2023/06/08 01:19:17;;;;;;;15.17;11.20;;;17.30;1.00;;;;;;4988993;28;20442;-74
2023/06/08 01:22:19;;;;;;;12.73;10.33;;;17.30;1.00;;;;;;5014628;28;20425;-75
2023/06/08 01:24:49;;;;;;;13.43;11.57;;;17.30;1.00;;;;;;5022777;28;20514;-75
2023/06/08 01:27:16;;;;;;;16.30;11.27;;;17.20;1.00;;;;;;5029405;28;20452;-75
2023/06/08 01:29:44;;;;;;;11.73;10.53;;;17.20;1.00;;;;;;5030651;28;20463;-75
2023/06/08 01:32:10;;;;;;;13.93;10.47;;;17.20;1.00;;;;;;5030897;28;20428;-73
2023/06/08 01:34:35;;;;;;;14.80;11.97;;;17.10;1.00;;;;;;5030528;28;20437;-74
2023/06/08 01:37:17;;;;;;;14.67;11.07;;;17.00;1.00;;;;;;5030499;28;20210;-75
2023/06/08 01:39:50;;;;;;;16.30;11.63;;;17.10;1.00;;;;;;5023693;28;20266;-74
2023/06/08 01:42:18;;;;;;;11.57;10.37;;;17.00;1.00;;;;;;5029228;28;21006;-74
2023/06/08 01:44:51;;;;;;;15.07;11.40;;;17.00;1.00;;;;;;5030436;28;20428;-74
2023/06/08 01:47:17;;;;;;;12.53;11.23;;;16.90;1.00;;;;;;5030343;28;20781;-74
2023/06/08 01:49:45;;;;;;;12.47;11.13;;;16.90;1.00;;;;;;5030222;28;20432;-75
2023/06/08 01:52:10;;;;;;;11.90;10.50;;;16.90;1.00;;;;;;5030457;28;20842;-74
2023/06/08 01:54:36;;;;;;;12.93;11.23;;;16.90;1.00;;;;;;5030143;28;20453;-75
2023/06/08 01:57:03;;;;;;;14.30;11.17;;;16.80;1.00;;;;;;5027335;28;20185;-75
2023/06/08 01:59:29;;;;;;;13.37;11.93;;;16.70;1.00;;;;;;5030157;28;20185;-75
2023/06/08 02:01:54;;;;;;;16.23;11.70;;;16.70;1.00;;;;;;5029873;28;20929;-75
2023/06/08 02:04:20;;;;;;;12.90;11.33;;;16.60;1.00;;;;;;5030304;28;20219;-75
2023/06/08 02:06:45;;;;;;;16.23;11.50;;;16.60;1.00;;;;;;5030351;28;20182;-75
2023/06/08 02:09:10;;;;;;;16.30;11.60;;;17.00;1.00;;;;;;5029947;28;20256;-76
2023/06/08 02:11:36;;;;;;;14.10;11.20;;;16.60;1.00;;;;;;5030307;28;20182;-75
2023/06/08 02:14:04;;;;;;;13.00;10.83;;;16.60;1.00;;;;;;5029066;28;20204;-75
2023/06/08 02:16:33;;;;;;;13.97;12.47;;;16.60;1.00;;;;;;5028481;28;20656;-75
2023/06/08 02:18:59;;;;;;;12.70;11.40;;;16.60;1.00;;;;;;5028920;28;20990;-76
2023/06/08 02:21:25;;;;;;;16.50;13.00;;;16.60;1.00;;;;;;5029819;28;20425;-75
2023/06/08 02:23:50;;;;;;;14.90;12.77;;;16.60;1.00;;;;;;5028912;28;20452;-75
2023/06/08 02:26:16;;;;;;;14.23;12.73;;;16.50;1.00;;;;;;5025028;28;20280;-74
2023/06/08 02:28:42;;;;;;;14.20;12.20;;;16.40;1.00;;;;;;5030051;28;20698;-75
2023/06/08 02:31:07;;;;;;;17.43;13.97;;;16.40;1.00;;;;;;5030115;28;20428;-75
2023/06/08 02:33:33;;;;;;;16.10;12.87;;;16.40;1.00;;;;;;5029364;28;20221;-75
2023/06/08 02:35:58;;;;;;;13.70;12.07;;;16.40;1.00;;;;;;5030112;28;20182;-75
2023/06/08 02:38:25;;;;;;;14.37;11.37;;;16.30;1.00;;;;;;5028439;28;20689;-75
2023/06/08 02:40:51;;;;;;;15.40;13.20;;;16.30;1.00;;;;;;5030173;28;20190;-74
2023/06/08 02:43:18;;;;;;;15.20;12.80;;;14.80;1.00;;;;;;5029663;28;20482;-74
2023/06/08 02:45:43;;;;;;;16.97;11.90;;;16.30;1.00;;;;;;5029827;28;20421;-75
2023/06/08 02:48:09;;;;;;;16.60;12.83;;;16.30;1.00;;;;;;5029721;28;20854;-74
2023/06/08 02:50:35;;;;;;;19.50;11.77;;;16.30;1.00;;;;;;5029742;28;20213;-75
2023/06/08 02:53:02;;;;;;;19.20;12.17;;;16.30;1.00;;;;;;5029871;28;20185;-74
2023/06/08 02:55:28;;;;;;;12.90;11.17;;;16.30;1.00;;;;;;5029406;28;20206;-74
2023/06/08 02:57:54;;;;;;;12.97;11.50;;;16.30;1.00;;;;;;5026197;28;20431;-75
2023/06/08 03:00:20;;;;;;;13.87;12.30;;;16.20;1.00;;;;;;5029344;28;20178;-74
2023/06/08 03:02:46;;;;;;;14.30;12.80;;;16.10;1.00;;;;;;5030369;28;20863;-75
2023/06/08 03:05:13;;;;;;;14.13;12.23;;;16.10;1.00;;;;;;5029729;28;20264;-75
2023/06/08 03:07:40;;;;;;;18.07;12.77;;;16.10;1.00;;;;;;5028196;28;20227;-75
2023/06/08 03:10:07;;;;;;;21.73;12.70;;;16.10;1.00;;;;;;5029756;28;20436;-75
2023/06/08 03:12:32;;;;;;;15.87;13.20;;;16.00;1.00;;;;;;5029414;28;20432;-75
2023/06/08 03:14:58;;;;;;;17.13;13.33;;;16.00;1.00;;;;;;5032802;28;20443;-74
2023/06/08 03:17:24;;;;;;;17.23;14.10;;;16.00;1.00;;;;;;5032977;28;20218;-75
2023/06/08 03:19:50;;;;;;;16.30;13.50;;;16.00;1.00;;;;;;5033357;28;20182;-75
2023/06/08 03:22:19;;;;;;;14.93;12.83;;;15.90;1.00;;;;;;5032809;28;20427;-74
2023/06/08 03:24:48;;;;;;;15.97;11.40;;;15.90;1.00;;;;;;5032942;28;20436;-75
2023/06/08 03:27:14;;;;;;;14.90;12.23;;;15.90;1.00;;;;;;5033082;28;20981;-75
2023/06/08 03:29:40;;;;;;;15.17;12.10;;;15.90;1.00;;;;;;5032322;28;20455;-74
2023/06/08 03:32:06;;;;;;;13.93;12.20;;;15.90;1.00;;;;;;5033138;28;20192;-75
2023/06/08 03:34:31;;;;;;;16.30;12.30;;;15.90;1.00;;;;;;5032556;28;20319;-75
2023/06/08 03:36:57;;;;;;;17.93;11.97;;;15.90;1.00;;;;;;5031429;28;20538;-75
2023/06/08 03:39:22;;;;;;;19.60;12.30;;;15.90;1.00;;;;;;5032588;28;20189;-74
2023/06/08 03:41:48;;;;;;;15.03;12.37;;;15.90;1.00;;;;;;5033098;28;20668;-75
2023/06/08 03:44:14;;;;;;;15.20;12.37;;;15.90;1.00;;;;;;5032488;28;20284;-74
2023/06/08 03:46:39;;;;;;;15.33;12.60;;;15.90;1.00;;;;;;5032389;28;20843;-75
2023/06/08 03:49:05;;;;;;;14.37;11.60;;;15.90;1.00;;;;;;5031301;28;20663;-75
2023/06/08 03:51:30;;;;;;;23.53;12.77;;;15.90;1.00;;;;;;5032218;28;20189;-75
2023/06/08 03:53:59;;;;;;;13.80;11.77;;;15.90;1.00;;;;;;5033021;28;20193;-74
2023/06/08 03:56:25;;;;;;;14.73;12.60;;;15.90;1.00;;;;;;5027966;28;20182;-74
2023/06/08 03:58:51;;;;;;;13.90;12.30;;;15.90;1.00;;;;;;5030940;28;20425;-75
2023/06/08 04:01:17;;;;;;;14.57;11.77;;;15.90;1.00;;;;;;5032539;28;20439;-75
2023/06/08 04:03:43;;;;;;;14.97;12.40;;;15.90;1.00;;;;;;5024323;28;20698;-75
2023/06/08 04:06:09;;;;;;;17.30;12.13;;;15.90;1.00;;;;;;5032202;28;20511;-75
2023/06/08 04:08:40;;;;;;;13.00;11.37;;;15.90;1.00;;;;;;5031910;28;20680;-75
2023/06/08 04:11:09;;;;;;;13.27;11.73;;;16.00;1.00;;;;;;5032258;28;20428;-75
2023/06/08 04:13:36;;;;;;;15.37;12.20;;;16.10;1.00;;;;;;5031830;28;20547;-74
2023/06/08 04:16:07;;;;;;;13.07;11.67;;;16.00;1.00;;;;;;5032198;28;20424;-75
2023/06/08 04:18:32;;;;;;;13.10;11.70;;;16.10;1.00;;;;;;5031751;28;20516;-75
2023/06/08 04:20:58;;;;;;;14.43;11.50;;;16.20;1.00;;;;;;5032217;28;20500;-75
2023/06/08 04:23:23;;;;;;;14.40;12.10;;;16.10;1.00;;;;;;5031410;28;20197;-74
2023/06/08 04:25:49;;;;;;;13.40;12.00;;;16.10;1.00;;;;;;5031344;28;20626;-75
2023/06/08 04:28:15;;;;;;;17.20;13.00;;;16.20;1.00;;;;;;5031724;28;20615;-75
2023/06/08 04:30:40;;;;;;;14.57;13.03;;;16.50;1.00;;;;;;5031706;28;20216;-75
2023/06/08 04:33:06;;;;;;;13.43;12.03;;;16.30;1.00;;;;;;5031945;28;20448;-75
2023/06/08 04:35:32;;;;;;;15.03;12.57;;;16.30;1.00;;;;;;5023206;28;20240;-75
2023/06/08 04:37:57;;;;;;;15.00;12.43;;;16.40;1.00;;;;;;5031797;28;20239;-75
2023/06/08 04:40:25;;;;;;;14.30;12.73;;;16.50;1.00;;;;;;5031032;28;20188;-75
2023/06/08 04:42:51;;;;;;;15.30;12.87;;;16.60;1.00;;;;;;5031563;28;20184;-74
2023/06/08 04:45:18;;;;;;;15.77;13.77;;;16.70;1.00;;;;;;5031552;28;20456;-75
2023/06/08 04:47:45;;;;;;;17.77;14.97;;;16.70;1.00;;;;;;5031195;28;20460;-75
2023/06/08 04:50:11;;;;;;;16.27;14.60;;;16.80;1.00;;;;;;5031531;28;20482;-75
2023/06/08 04:52:40;;;;;;;18.90;14.13;;;16.90;1.00;;;;;;5031032;28;20424;-75
2023/06/08 04:55:13;;;;;;;16.63;13.97;;;17.00;1.00;;;;;;5031123;28;20448;-75
2023/06/08 04:57:42;;;;;;;16.83;14.80;;;17.10;1.00;;;;;;5026556;28;20428;-74
2023/06/08 05:00:09;;;;;;;15.37;13.77;;;17.00;1.00;;;;;;5031326;28;20486;-75
2023/06/08 05:02:36;;;;;;;18.03;14.27;;;17.10;1.00;;;;;;5030944;28;20428;-75
2023/06/08 05:05:03;;;;;;;15.60;13.93;;;17.10;1.00;;;;;;5031125;28;20494;-75
2023/06/08 05:07:28;;;;;;;18.40;15.13;;;17.10;1.00;;;;;;5030742;28;20478;-75
2023/06/08 05:09:55;;;;;;;16.73;14.80;;;17.20;1.00;;;;;;5031068;28;20432;-75
2023/06/08 05:12:20;;;;;;;16.67;14.50;;;17.40;1.00;;;;;;5031108;28;20178;-75
2023/06/08 05:14:46;;;;;;;16.17;14.57;;;17.50;1.00;;;;;;5030592;28;20440;-75
2023/06/08 05:17:11;;;;;;;16.10;14.40;;;17.60;1.00;;;;;;5031122;28;20200;-75
2023/06/08 05:19:37;;;;;;;16.50;14.63;;;17.60;1.00;;;;;;5030663;28;20384;-74
2023/06/08 05:22:03;;;;;;;18.33;15.00;;;17.70;1.00;;;;;;5026807;28;20256;-75
2023/06/08 05:24:28;;;;;;;17.00;14.27;;;17.70;1.00;;;;;;5029334;28;20206;-74
2023/06/08 05:26:54;;;;;;;19.40;14.93;;;17.80;1.00;;;;;;5029548;28;20182;-75
2023/06/08 05:29:19;;;;;;;17.60;14.63;;;17.90;1.00;;;;;;5030768;28;20210;-75
2023/06/08 05:31:45;;;;;;;18.00;15.90;;;18.00;1.00;;;;;;5028930;28;20659;-75
2023/06/08 05:34:10;;;;;;;16.73;14.57;;;18.10;1.00;;;;;;5030704;28;20549;-74
2023/06/08 05:36:37;;;;;;;17.30;14.93;;;18.20;1.00;;;;;;5029646;28;20672;-75
2023/06/08 05:39:04;;;;;;;18.13;15.50;;;18.20;1.00;;;;;;5030758;28;20593;-75
2023/06/08 05:41:30;;;;;;;17.90;16.10;;;18.30;1.00;;;;;;5030264;28;20479;-75
2023/06/08 05:43:55;;;;;;;20.53;16.53;;;18.30;1.00;;;;;;5030755;28;20443;-75
2023/06/08 05:46:21;;;;;;;24.90;18.50;;;18.30;1.00;;;;;;5030492;28;20197;-75
2023/06/08 05:48:46;;;;;;;19.90;17.07;;;18.40;1.00;;;;;;5030189;28;20205;-75
2023/06/08 05:51:12;;;;;;;19.40;17.30;;;18.50;1.00;;;;;;5030297;28;20189;-75
2023/06/08 05:53:38;;;;;;;18.03;16.13;;;18.60;1.00;;;;;;5029900;28;20218;-75
2023/06/08 05:56:04;;;;;;;20.60;16.70;;;18.70;1.00;;;;;;5028026;28;20247;-74
2023/06/08 05:58:29;;;;;;;20.83;17.20;;;18.80;1.00;;;;;;5027409;28;20942;-75
2023/06/08 06:00:55;;;;;;;28.00;16.70;;;18.90;1.00;;;;;;5030502;28;20186;-75
2023/06/08 06:03:21;;;;;;;21.63;17.33;;;19.10;1.00;;;;;;5030381;28;20215;-75
2023/06/08 06:05:47;;;;;;;19.27;16.00;;;19.10;1.00;;;;;;5029918;28;20178;-75
2023/06/08 06:08:13;;;;;;;18.87;16.93;;;19.30;1.00;;;;;;5030119;28;20456;-75
2023/06/08 06:10:38;;;;;;;20.33;16.40;;;19.40;1.00;;;;;;5028878;28;20182;-75
2023/06/08 06:13:04;;;;;;;18.80;16.83;;;19.40;1.00;;;;;;5030304;28;20552;-75
2023/06/08 06:15:30;;;;;;;19.17;15.53;;;19.60;1.00;;;;;;5029892;28;20198;-75
2023/06/08 06:17:55;;;;;;;20.10;15.63;;;19.70;1.00;;;;;;5030341;28;20673;-76
2023/06/08 06:20:22;;;;;;;17.43;15.57;;;19.80;1.00;;;;;;5030217;28;20193;-75
2023/06/08 06:22:47;;;;;;;16.97;15.10;;;19.90;1.00;;;;;;5029782;28;20189;-75
2023/06/08 06:25:13;;;;;;;17.20;15.40;;;20.00;1.00;;;;;;5028817;28;20452;-75
2023/06/08 06:27:38;;;;;;;18.13;15.40;;;20.10;1.00;;;;;;5029970;28;20713;-75
2023/06/08 06:30:05;;;;;;;16.75;14.20;;;20.20;1.00;;;;;;5029634;28;20942;-75
2023/06/08 06:32:31;;;;;;;16.80;15.07;;;20.40;1.00;;;;;;5029883;28;20177;-75
2023/06/08 06:34:56;;;;;;;20.07;14.80;;;20.70;1.00;;;;;;5029866;28;20450;-75
2023/06/08 06:37:22;;;;;;;18.80;14.80;;;20.70;1.00;;;;;;5028669;28;20719;-76
2023/06/08 06:39:47;;;;;;;16.67;14.93;;;20.80;1.00;;;;;;5029698;28;20224;-75
2023/06/08 06:42:15;;;;;;;15.90;14.20;;;20.80;1.00;;;;;;5029733;28;20644;-75
2023/06/08 06:44:40;;;;;;;19.23;14.57;;;20.90;1.00;;;;;;5029595;28;20207;-75
2023/06/08 06:47:06;;;;;;;18.03;13.60;;;21.00;1.00;;;;;;5030748;28;20510;-75
2023/06/08 06:49:31;;;;;;;15.13;13.43;;;21.10;1.00;;;;;;5033235;28;20219;-75
2023/06/08 06:51:57;;;;;;;16.10;13.90;;;21.20;1.00;;;;;;5033781;28;20185;-76
2023/06/08 06:54:22;;;;;;;14.70;12.73;;;21.50;1.00;;;;;;5033512;28;20213;-75
2023/06/08 06:56:48;;;;;;;15.60;13.63;;;21.60;1.00;;;;;;5027526;28;20189;-75
2023/06/08 06:59:14;;;;;;;14.97;13.30;;;21.80;1.00;;;;;;5033045;28;20188;-75
2023/06/08 07:01:41;;;;;;;14.57;13.07;;;21.80;1.00;;;;;;5032785;28;20234;-75
2023/06/08 07:04:06;;;;;;;14.97;12.80;;;21.90;1.00;;;;;;5032951;28;20204;-75
2023/06/08 07:06:32;;;;;;;15.33;13.13;;;22.00;1.00;;;;;;5032534;28;20909;-75
2023/06/08 07:08:58;;;;;;;13.87;12.10;;;22.20;1.00;;;;;;5032850;28;20213;-76
2023/06/08 07:11:23;;;;;;;15.17;12.60;;;22.40;1.00;;;;;;5032815;28;20290;-76
2023/06/08 07:13:49;;;;;;;13.83;12.43;;;22.60;1.00;;;;;;5031494;28;20216;-75
2023/06/08 07:16:14;;;;;;;15.13;12.13;;;22.80;1.00;;;;;;5032881;28;20196;-76
2023/06/08 07:18:40;;;;;;;16.47;12.37;;;22.90;1.00;;;;;;5032323;28;20189;-75
2023/06/08 07:21:06;;;;;;;12.47;11.17;;;23.10;1.00;;;;;;5032744;28;20196;-75
2023/06/08 07:23:31;;;;;;;14.67;12.87;;;23.50;1.00;;;;;;5032284;28;20671;-75
2023/06/08 07:25:57;;;;;;;13.63;12.33;;;23.50;1.00;;;;;;5032678;28;20173;-76
2023/06/08 07:28:22;;;;;;;13.20;11.90;;;23.60;1.00;;;;;;5032356;28;20252;-76
2023/06/08 07:30:48;;;;;;;15.57;12.60;;;23.60;1.00;;;;;;5032023;28;20217;-75
2023/06/08 07:33:14;;;;;;;13.93;12.57;;;23.70;1.00;;;;;;5032456;28;20189;-76
2023/06/08 07:35:39;;;;;;;13.70;11.90;;;23.80;1.00;;;;;;5032091;28;20317;-74
2023/06/08 07:38:06;;;;;;;14.20;12.40;;;24.10;1.00;;;;;;5030883;28;20659;-75
2023/06/08 07:40:31;;;;;;;15.43;12.87;;;24.40;1.00;;;;;;5032140;28;20181;-74
2023/06/08 07:42:57;;;;;;;13.50;12.10;;;24.50;1.00;;;;;;5032307;28;20514;-75
2023/06/08 07:45:23;;;;;;;14.20;12.40;;;24.60;1.00;;;;;;5032222;28;20204;-75
2023/06/08 07:47:48;;;;;;;14.20;12.80;;;24.80;1.00;;;;;;5031856;28;20257;-75
2023/06/08 07:50:14;;;;;;;16.20;12.60;;;24.90;1.00;;;;;;5032062;28;20268;-75
2023/06/08 07:52:40;;;;;;;13.70;12.30;;;24.80;1.00;;;;;;5031760;28;20231;-75
2023/06/08 07:55:06;;;;;;;15.93;13.20;;;24.90;1.00;;;;;;5031728;28;20217;-75
2023/06/08 07:57:31;;;;;;;13.20;11.90;;;25.00;1.00;;;;;;5030235;28;20436;-75
2023/06/08 07:59:57;;;;;;;14.60;12.87;;;25.20;1.00;;;;;;5023095;28;20735;-75
2023/06/08 08:02:23;;;;;;;16.33;12.10;;;25.50;1.00;;;;;;5031943;28;20197;-76
2023/06/08 08:04:48;;;;;;;15.07;13.13;;;25.80;1.00;;;;;;5031397;28;20211;-76
2023/06/08 08:07:14;;;;;;;13.87;12.00;;;26.20;1.00;;;;;;5032090;28;20670;-76
2023/06/08 08:09:41;;;;;;;13.97;12.27;;;26.50;1.00;;;;;;5030086;28;20216;-75
2023/06/08 08:12:09;;;;;;;14.00;12.60;;;26.60;1.00;;;;;;5032081;28;20177;-76
2023/06/08 08:14:34;;;;;;;13.20;11.90;;;26.60;1.00;;;;;;5031260;28;20911;-76
2023/06/08 08:17:00;;;;;;;13.47;12.20;;;26.90;1.00;;;;;;5031727;28;20420;-76
2023/06/08 08:19:25;;;;;;;13.33;12.03;;;27.20;1.00;;;;;;5031840;28;20200;-76
2023/06/08 08:21:51;;;;;;;15.93;12.43;;;27.50;1.00;;;;;;5031429;28;20563;-76
2023/06/08 08:24:16;;;;;;;15.33;12.40;;;27.60;1.00;;;;;;5031293;28;20300;-76
2023/06/08 08:26:42;;;;;;;13.53;11.53;;;27.80;1.00;;;;;;5031132;28;20264;-75
2023/06/08 08:29:08;;;;;;;15.70;13.10;;;28.00;1.00;;;;;;5031302;28;20201;-76
2023/06/08 08:31:33;;;;;;;12.37;11.10;;;28.10;1.00;;;;;;5030988;28;20181;-76
2023/06/08 08:33:59;;;;;;;13.00;11.70;;;28.10;1.00;;;;;;5028793;28;20205;-76
2023/06/08 08:36:24;;;;;;;12.50;11.30;;;28.30;1.00;;;;;;5031226;28;20264;-76
2023/06/08 08:38:50;;;;;;;13.03;11.50;;;28.60;1.00;;;;;;5029570;28;20212;-76
2023/06/08 08:41:19;;;;;;;13.07;11.67;;;28.70;1.00;;;;;;5031314;28;20185;-75
2023/06/08 08:44:02;;;;;;;13.10;11.70;;;29.00;1.00;;;;;;5027983;28;20606;-76
2023/06/08 08:46:37;;;;;;;16.80;12.97;;;29.20;1.00;;;;;;5030879;28;20643;-77
2023/06/08 08:49:08;;;;;;;12.23;10.83;;;29.30;1.00;;;;;;5023314;28;20223;-76
2023/06/08 08:51:38;;;;;;;11.80;10.53;;;29.20;1.00;;;;;;5030963;28;20181;-76
2023/06/08 08:54:04;;;;;;;16.20;12.33;;;29.60;1.00;;;;;;5030776;28;20575;-76
2023/06/08 08:56:35;;;;;;;14.17;11.60;;;29.70;1.00;;;;;;5024846;28;20190;-76
2023/06/08 08:59:02;;;;;;;13.60;11.00;;;29.90;1.00;;;;;;5021425;28;20200;-76
2023/06/08 09:01:28;;;;;;;13.15;11.38;;;30.10;1.00;;;;;;5029484;28;20185;-76
2023/06/08 09:03:53;;;;;;;15.43;11.60;;;30.60;1.00;;;;;;5030551;28;20201;-76
2023/06/08 09:06:19;;;;;;;12.88;11.52;;;30.90;1.00;;;;;;5029338;28;20666;-77
2023/06/08 09:08:47;;;;;;;12.30;11.00;;;31.40;1.00;;;;;;5030260;28;20212;-75
2023/06/08 09:11:12;;;;;;;11.90;10.73;;;32.20;1.00;;;;;;5030423;28;20296;-76
2023/06/08 09:13:38;;;;;;;12.65;9.95;;;33.00;1.00;;;;;;5030463;28;20327;-76
2023/06/08 09:16:20;;;;;;;13.90;10.32;;;34.10;1.00;;;;;;5030530;28;20185;-77
2023/06/08 09:18:47;;;;;;;10.88;9.88;;;35.20;1.00;;;;;;5030200;28;20185;-76
2023/06/08 09:21:21;;;;;;;11.13;9.93;;;35.60;1.00;;;;;;5029191;28;20280;-76
2023/06/08 09:24:22;;;;;;;10.63;9.50;;;35.90;1.00;;;;;;5029784;28;20247;-77
2023/06/08 09:26:51;;;;;;;11.98;8.60;;;36.50;1.00;;;;;;5030229;28;20184;-77
2023/06/08 09:29:44;;;;;;;10.18;9.18;;;37.30;1.00;;;;;;5030205;28;20231;-77
2023/06/08 09:32:16;;;;;;;9.68;8.40;;;37.40;1.00;;;;;;5028477;28;20232;-77
2023/06/08 09:34:51;;;;;;;9.35;8.02;;;37.40;1.00;;;;;;5029828;28;20570;-76
2023/06/08 09:37:18;;;;;;;10.00;8.80;;;38.00;1.00;;;;;;5029996;28;20185;-77
2023/06/08 09:39:45;;;;;;;9.23;8.32;;;38.30;1.00;;;;;;5029805;28;20275;-77
2023/06/08 09:42:11;;;;;;;8.43;7.60;;;37.50;1.00;;;;;;5030147;28;20213;-77
2023/06/08 09:44:38;;;;;;;8.25;7.45;;;36.40;1.00;;;;;;5030313;28;20209;-77
2023/06/08 09:47:25;;;;;;;10.27;8.52;;;36.00;1.00;;;;;;5030262;28;20188;-77
2023/06/08 09:49:52;;;;;;;9.57;8.63;;;37.00;1.00;;;;;;5028220;28;20772;-77
2023/06/08 09:52:20;;;;;;;8.90;7.45;;;38.30;1.00;;;;;;5029903;28;20185;-77
2023/06/08 09:54:46;;;;;;;9.85;8.15;;;39.10;1.00;;;;;;5029953;28;20771;-76
2023/06/08 09:57:15;;;;;;;12.60;8.80;;;39.30;1.00;;;;;;5022834;28;20268;-77
2023/06/08 09:59:53;;;;;;;9.27;8.35;;;39.30;1.00;;;;;;5029526;28;20196;-76
2023/06/08 10:02:29;;;;;;;11.30;7.72;;;39.30;1.00;;;;;;5030011;28;20187;-78
2023/06/08 10:04:58;;;;;;;9.23;8.32;;;39.60;1.00;;;;;;5029458;28;20197;-77
2023/06/08 10:07:29;;;;;;;12.02;8.45;;;39.90;1.00;;;;;;5029703;28;20177;-77
2023/06/08 10:10:05;;;;;;;9.60;8.60;;;40.10;1.00;;;;;;5029430;28;20772;-77
2023/06/08 10:12:30;;;;;;;8.80;7.90;;;39.80;1.00;;;;;;5028524;28;20278;-78
2023/06/08 10:14:57;;;;;;;8.75;7.93;;;40.00;1.00;;;;;;5028147;28;20754;-77
2023/06/08 10:17:25;;;;;;;9.85;7.85;;;40.20;1.00;;;;;;5029816;28;20197;-77
2023/06/08 10:19:51;;;;;;;7.68;6.90;;;40.60;1.00;;;;;;5029340;28;20184;-78
2023/06/08 10:22:18;;;;;;;8.93;8.10;;;41.20;1.00;;;;;;5030382;28;20192;-78
2023/06/08 10:24:45;;;;;;;8.93;7.65;;;41.10;1.00;;;;;;5033340;28;20254;-77
2023/06/08 10:27:23;;;;;;;8.40;7.57;;;41.70;1.00;;;;;;5033832;28;20284;-78
2023/06/08 10:30:00;;;;;;;16.75;8.60;;;42.10;1.00;;;;;;5033207;28;20251;-77
2023/06/08 10:32:31;;;;;;;9.45;8.50;;;41.90;1.00;;;;;;5033572;28;20191;-77
2023/06/08 10:35:00;;;;;;;8.98;8.18;;;41.80;1.00;;;;;;5031771;28;20222;-77
2023/06/08 10:37:27;;;;;;;12.20;8.30;;;42.00;1.00;;;;;;5032357;28;20277;-77
2023/06/08 10:39:53;;;;;;;9.52;8.65;;;41.30;1.00;;;;;;5031532;28;20216;-77
2023/06/08 10:42:19;;;;;;;9.00;8.18;;;40.70;1.00;;;;;;5032320;28;20216;-77
2023/06/08 10:44:53;;;;;;;9.35;8.45;;;39.90;1.00;;;;;;5032969;28;20194;-77
2023/06/08 10:47:18;;;;;;;9.85;8.90;;;39.70;1.00;;;;;;5033438;28;20193;-77
2023/06/08 10:49:45;;;;;;;9.88;8.45;;;38.90;1.00;;;;;;5032793;28;20255;-76
2023/06/08 10:52:17;;;;;;;13.05;8.60;;;37.20;1.00;;;;;;5033518;28;20242;-77
2023/06/08 10:55:08;;;;;;;11.05;9.55;;;35.80;1.00;;;;;;5030852;28;20204;-76
2023/06/08 10:57:49;;;;;;;10.57;9.38;;;34.90;1.00;;;;;;5020412;28;20660;-77
2023/06/08 11:00:24;;;;;;;10.85;8.65;;;35.50;1.00;;;;;;5026080;28;20208;-77
2023/06/08 11:02:50;;;;;;;10.43;8.00;;;36.80;1.00;;;;;;5031751;28;20566;-77
2023/06/08 11:05:17;;;;;;;10.05;8.70;;;38.30;1.00;;;;;;5031550;28;20297;-77
2023/06/08 11:07:42;;;;;;;9.15;7.70;;;39.50;1.00;;;;;;5032967;28;20185;-77
2023/06/08 11:10:08;;;;;;;9.45;8.27;;;39.90;1.00;;;;;;5024668;28;20186;-77
2023/06/08 11:12:34;;;;;;;10.38;8.75;;;39.00;1.00;;;;;;5032898;28;20185;-77
2023/06/08 11:15:00;;;;;;;8.88;7.97;;;37.30;1.00;;;;;;5032511;28;20205;-76
2023/06/08 11:17:30;;;;;;;9.02;8.23;;;36.00;1.00;;;;;;5032947;28;20181;-77
2023/06/08 11:19:56;;;;;;;9.05;8.07;;;35.50;1.00;;;;;;5032563;28;20177;-77
2023/06/08 11:22:22;;;;;;;10.80;8.95;;;35.70;1.00;;;;;;5032659;28;20197;-77
2023/06/08 11:24:48;;;;;;;9.90;8.90;;;37.40;1.00;;;;;;5031997;28;20240;-76
2023/06/08 11:27:17;;;;;;;11.02;9.48;;;38.40;1.00;;;;;;5032719;28;20267;-77
2023/06/08 11:29:46;;;;;;;10.07;9.00;;;38.00;1.00;;;;;;5032497;28;20197;-77
2023/06/08 11:32:13;;;;;;;10.30;8.85;;;37.00;1.00;;;;;;5032680;28;20201;-77
2023/06/08 11:34:45;;;;;;;10.50;9.40;;;35.80;1.00;;;;;;5031067;28;20223;-77
2023/06/08 11:37:16;;;;;;;10.27;9.07;;;35.00;1.00;;;;;;5032471;28;20177;-77
2023/06/08 11:39:46;;;;;;;10.75;9.23;;;35.30;1.00;;;;;;5032278;28;20256;-76
2023/06/08 11:42:12;;;;;;;10.05;8.23;;;35.90;1.00;;;;;;5032432;28;20211;-77
2023/06/08 11:44:38;;;;;;;10.35;8.30;;;35.40;1.00;;;;;;5032136;28;20300;-76
2023/06/08 11:47:06;;;;;;;8.57;7.70;;;34.90;1.00;;;;;;5031880;28;20707;-77
2023/06/08 11:49:54;;;;;;;8.27;7.55;;;34.50;1.00;;;;;;5030504;28;20258;-77
2023/06/08 11:52:23;;;;;;;8.77;7.88;;;35.90;1.00;;;;;;5023890;28;20181;-77
2023/06/08 11:54:56;;;;;;;7.93;6.88;;;37.20;1.00;;;;;;5031453;28;20282;-76
2023/06/08 11:57:53;;;;;;;7.57;6.85;;;38.40;1.00;;;;;;5024089;28;20630;-77
2023/06/08 12:00:27;;;;;;;8.20;6.97;;;39.80;1.00;;;;;;5023629;28;20677;-77
2023/06/08 12:02:55;;;;;;;6.90;6.20;;;40.20;1.00;;;;;;5031613;28;20170;-76
2023/06/08 12:05:25;;;;;;;6.78;6.10;;;41.30;1.00;;;;;;5031762;28;20567;-77
2023/06/08 12:07:57;;;;;;;6.45;5.85;;;42.00;1.00;;;;;;5031487;28;20605;-78
2023/06/08 12:10:30;;;;;;;5.60;5.07;;;42.60;1.00;;;;;;5031578;28;20187;-77
2023/06/08 12:12:56;;;;;;;7.25;5.60;;;43.00;1.00;;;;;;5030379;28;20179;-78
2023/06/08 12:15:21;;;;;;;6.32;5.13;;;43.60;1.00;;;;;;5031891;28;20196;-78
2023/06/08 12:17:47;;;;;;;10.77;5.57;;;43.80;1.00;;;;;;5031236;28;20280;-76
2023/06/08 12:20:17;;;;;;;7.32;6.03;;;43.20;1.00;;;;;;5031623;28;20177;-77
2023/06/08 12:22:42;;;;;;;9.15;5.70;;;41.00;1.00;;;;;;5031494;28;20200;-77
2023/06/08 12:25:08;;;;;;;6.55;5.70;;;39.00;1.00;;;;;;5030826;28;20754;-77
2023/06/08 12:27:39;;;;;;;7.55;6.00;;;37.50;1.00;;;;;;5031482;28;20709;-77
2023/06/08 12:30:06;;;;;;;5.50;5.00;;;37.00;1.00;;;;;;5031118;28;20204;-77
2023/06/08 12:32:32;;;;;;;8.07;5.60;;;36.90;1.00;;;;;;5031326;28;20185;-77
2023/06/08 12:34:59;;;;;;;6.90;6.20;;;36.40;1.00;;;;;;5029554;28;20188;-77
2023/06/08 12:37:25;;;;;;;7.60;6.72;;;35.90;1.00;;;;;;5031000;28;20188;-77
2023/06/08 12:39:52;;;;;;;8.68;6.97;;;35.60;1.00;;;;;;5030794;28;20176;-76
2023/06/08 12:42:18;;;;;;;8.23;6.72;;;36.30;1.00;;;;;;5031301;28;20190;-77
2023/06/08 12:44:44;;;;;;;10.63;6.80;;;37.10;1.00;;;;;;5030649;28;20247;-78